Time;durP1;ratioP1;P1;durP2;ratioP2;P2;SDS_P1;SDS_P2;PMS_P1;PMS_P2;Temp;Humidity;BMP_temperature;BMP_pressure;BME280_temperature;BME280_humidity;BME280_pressure;Samples;Min_cycle;Max_cycle;Signal;HPM_P1;HPM_P2
2021/10/25 00:00:46;;;;;;;38.00;20.90;;;;;;;2.07;82.23;101526.64;114622;1193;138468;-70
2021/10/25 00:03:33;;;;;;;33.90;20.80;;;;;;;2.06;82.55;101529.39;114664;1193;95827;-71
2021/10/25 00:06:20;;;;;;;33.20;20.60;;;;;;;2.07;82.86;101526.32;113457;1193;97541;-71
2021/10/25 00:09:07;;;;;;;30.00;18.40;;;;;;;2.09;82.90;101522.57;113165;1193;137932;-70
2021/10/25 00:11:54;;;;;;;30.80;19.10;;;;;;;2.12;82.87;101521.27;113267;1193;109265;-71
2021/10/25 00:14:41;;;;;;;34.40;20.60;;;;;;;2.16;82.69;101520.52;113214;1194;138150;-70
2021/10/25 00:17:27;;;;;;;37.90;20.90;;;;;;;2.17;82.88;101523.46;113391;1194;98020;-71
2021/10/25 00:20:15;;;;;;;28.40;18.30;;;;;;;2.16;82.76;101518.30;112941;1195;138223;-71
2021/10/25 00:23:03;;;;;;;31.70;19.60;;;;;;;2.14;82.63;101518.73;113556;1193;112216;-71
2021/10/25 00:25:50;;;;;;;32.00;20.90;;;;;;;2.11;82.59;101522.11;113942;1193;137632;-70
2021/10/25 00:28:37;;;;;;;31.50;19.80;;;;;;;2.11;82.61;101524.33;113198;1193;108841;-70
2021/10/25 00:31:25;;;;;;;31.70;20.20;;;;;;;2.09;82.78;101523.79;113292;1193;138389;-71
2021/10/25 00:34:14;;;;;;;34.90;20.30;;;;;;;2.09;82.50;101519.84;114772;1193;95869;-71
2021/10/25 00:37:02;;;;;;;33.40;20.00;;;;;;;2.11;82.69;101512.31;114595;1193;137946;-71
2021/10/25 00:39:49;;;;;;;34.00;19.40;;;;;;;2.11;82.73;101513.88;114673;1193;109071;-70
2021/10/25 00:42:36;;;;;;;29.40;20.20;;;;;;;2.13;82.79;101513.41;114646;1193;108563;-72
2021/10/25 00:45:23;;;;;;;35.70;21.50;;;;;;;2.18;82.46;101506.14;114561;1193;138330;-72
2021/10/25 00:48:09;;;;;;;27.00;16.70;;;;;;;2.20;82.39;101499.84;114665;1194;95921;-72
2021/10/25 00:50:56;;;;;;;30.40;19.50;;;;;;;2.20;82.20;101496.75;114619;1193;138130;-72
2021/10/25 00:53:43;;;;;;;36.40;20.90;;;;;;;2.23;82.32;101500.59;113617;1193;108476;-71
2021/10/25 00:56:32;;;;;;;34.00;20.90;;;;;;;2.24;82.02;101498.38;112952;1194;138161;-71
2021/10/25 00:59:19;;;;;;;32.00;19.80;;;;;;;2.22;82.11;101494.90;114103;1193;97532;-72
2021/10/25 01:02:07;;;;;;;34.40;19.60;;;;;;;2.21;82.08;101489.39;114117;1193;138133;-70
2021/10/25 01:04:55;;;;;;;33.90;21.00;;;;;;;2.22;82.07;101485.80;114592;1193;113395;-69
2021/10/25 01:07:41;;;;;;;32.80;20.60;;;;;;;2.21;82.06;101486.31;114575;1193;138358;-70
2021/10/25 01:10:29;;;;;;;33.60;20.80;;;;;;;2.21;82.03;101483.55;114535;1193;108447;-71
2021/10/25 01:13:16;;;;;;;35.40;20.60;;;;;;;2.22;82.29;101482.55;114540;1193;138692;-70
2021/10/25 01:16:05;;;;;;;36.10;21.70;;;;;;;2.25;82.51;101483.81;113860;1193;96047;-72
2021/10/25 01:18:57;;;;;;;34.00;19.40;;;;;;;2.26;82.15;101479.55;113381;1193;112210;-72
2021/10/25 01:21:44;;;;;;;34.30;20.20;;;;;;;2.27;82.13;101478.03;114332;1193;108373;-71
2021/10/25 01:24:31;;;;;;;33.80;20.40;;;;;;;2.29;82.46;101481.14;113386;1193;108289;-71
2021/10/25 01:27:18;;;;;;;31.30;18.80;;;;;;;2.29;82.18;101472.91;114484;1194;137762;-71
2021/10/25 01:30:05;;;;;;;33.00;19.10;;;;;;;2.30;82.17;101469.83;114594;1195;97428;-71
2021/10/25 01:32:53;;;;;;;32.90;19.10;;;;;;;2.31;82.11;101462.66;114377;1193;138296;-71
2021/10/25 01:35:41;;;;;;;34.00;19.50;;;;;;;2.32;81.90;101461.98;113981;1193;109031;-71
2021/10/25 01:38:28;;;;;;;32.20;19.50;;;;;;;2.30;81.90;101459.88;113645;1195;138013;-72
2021/10/25 01:41:17;;;;;;;31.20;20.10;;;;;;;2.29;81.68;101457.30;113665;1194;97570;-70
2021/10/25 01:44:09;;;;;;;35.20;20.80;;;;;;;2.28;81.64;101449.89;114672;1193;137862;-71
2021/10/25 01:46:56;;;;;;;32.00;19.20;;;;;;;2.26;81.78;101446.77;114681;1195;112138;-71
2021/10/25 01:49:49;;;;;;;31.50;18.40;;;;;;;2.23;81.86;101444.83;114346;1193;138478;-70
2021/10/25 01:52:36;;;;;;;36.40;20.40;;;;;;;2.21;81.62;101441.88;114007;1193;108574;-70
2021/10/25 01:55:23;;;;;;;34.40;19.80;;;;;;;2.21;81.71;101442.55;114767;1193;95852;-71
2021/10/25 01:58:10;;;;;;;35.20;20.30;;;;;;;2.19;81.71;101443.88;114672;1195;95712;-70
2021/10/25 02:00:57;;;;;;;36.30;20.10;;;;;;;2.17;81.59;101440.08;114549;1193;112394;-71
2021/10/25 02:03:43;;;;;;;34.80;21.40;;;;;;;2.14;81.63;101436.56;114564;1193;138563;-71
2021/10/25 02:06:37;;;;;;;35.80;20.00;;;;;;;2.12;81.82;101432.73;114666;1193;107278;-69
2021/10/25 02:09:24;;;;;;;32.90;20.10;;;;;;;2.09;81.52;101428.39;113202;1195;139043;-70
2021/10/25 02:12:12;;;;;;;35.30;20.60;;;;;;;2.06;81.55;101425.92;113205;1194;97550;-70
2021/10/25 02:14:59;;;;;;;37.60;20.50;;;;;;;2.03;81.49;101421.06;113140;1193;138671;-70
2021/10/25 02:17:47;;;;;;;31.80;20.00;;;;;;;1.99;81.42;101421.85;114420;1193;109487;-70
2021/10/25 02:20:33;;;;;;;33.80;19.80;;;;;;;1.96;81.38;101417.64;114540;1194;139010;-71
2021/10/25 02:23:21;;;;;;;36.10;20.10;;;;;;;1.95;81.26;101413.48;114635;1193;96784;-71
2021/10/25 02:26:10;;;;;;;32.70;19.00;;;;;;;1.92;81.20;101410.01;113900;1193;139162;-70
2021/10/25 02:28:56;;;;;;;33.00;19.40;;;;;;;1.90;81.32;101410.31;114636;1193;112523;-70
2021/10/25 02:31:44;;;;;;;34.80;20.60;;;;;;;1.90;81.19;101405.50;113524;1193;108615;-70
2021/10/25 02:34:32;;;;;;;33.80;20.60;;;;;;;1.86;81.19;101402.86;113263;1194;137919;-70
2021/10/25 02:37:19;;;;;;;32.40;19.60;;;;;;;1.83;81.36;101408.97;114655;1193;97479;-71
2021/10/25 02:40:06;;;;;;;29.90;18.60;;;;;;;1.82;81.25;101402.95;114546;1193;138252;-71
2021/10/25 02:42:54;;;;;;;31.70;19.90;;;;;;;1.80;81.33;101401.02;114669;1193;111793;-71
2021/10/25 02:45:41;;;;;;;30.40;18.90;;;;;;;1.78;81.53;101403.19;114574;1193;139176;-71
2021/10/25 02:48:29;;;;;;;31.10;18.80;;;;;;;1.78;81.54;101398.20;114664;1193;108633;-71
2021/10/25 02:51:18;;;;;;;30.60;19.40;;;;;;;1.80;81.43;101393.97;113941;1193;138668;-71
2021/10/25 02:54:05;;;;;;;31.40;19.40;;;;;;;1.80;81.43;101391.60;113961;1193;95506;-71
2021/10/25 02:57:02;;;;;;;30.60;18.80;;;;;;;1.81;81.28;101387.52;113516;1194;138315;-71
2021/10/25 02:59:49;;;;;;;33.30;20.30;;;;;;;1.81;81.18;101386.81;113702;1193;108792;-71
2021/10/25 03:02:36;;;;;;;32.10;20.80;;;;;;;1.80;81.29;101383.69;114021;1193;137932;-71
2021/10/25 03:05:23;;;;;;;;;;;;;;;1.78;81.28;101387.92;113760;1193;97516;-72
2021/10/25 03:08:11;;;;;;;37.10;21.40;;;;;;;1.77;81.36;101386.54;114582;1193;124315;-71
2021/10/25 03:10:58;;;;;;;34.40;21.00;;;;;;;1.77;81.30;101385.52;114629;1193;110290;-71
2021/10/25 03:13:45;;;;;;;35.50;21.00;;;;;;;1.78;81.45;101383.46;114181;1193;108399;-71
2021/10/25 03:16:32;;;;;;;34.80;20.40;;;;;;;1.79;81.30;101386.05;114508;1193;137759;-72
2021/10/25 03:19:20;;;;;;;;;;;;;;;1.81;81.22;101388.54;113451;1195;97571;-71
2021/10/25 03:22:07;;;;;;;39.00;22.10;;;;;;;1.82;81.27;101387.86;113187;1193;123669;-70
2021/10/25 03:24:55;;;;;;;38.30;21.40;;;;;;;1.82;81.00;101388.21;113946;1193;112580;-71
2021/10/25 03:27:43;;;;;;;31.70;19.50;;;;;;;1.83;81.00;101389.25;113113;1193;139299;-71
2021/10/25 03:30:31;;;;;;;40.20;23.00;;;;;;;1.82;80.97;101387.86;113275;1193;108479;-71
2021/10/25 03:33:21;;;;;;;33.50;21.00;;;;;;;1.80;80.97;101391.93;113168;1193;137583;-71
2021/10/25 03:36:18;;;;;;;31.40;20.60;;;;;;;1.78;80.98;101381.40;113368;1193;97593;-71
2021/10/25 03:39:07;;;;;;;34.20;21.40;;;;;;;1.75;80.73;101383.06;114541;1186;137881;-70
2021/10/25 03:42:02;;;;;;;35.90;21.60;;;;;;;1.72;80.76;101379.73;113426;1195;108595;-71
2021/10/25 03:44:55;;;;;;;38.00;21.60;;;;;;;1.69;80.82;101375.75;113289;1193;139544;-71
2021/10/25 03:50:37;;;;;;;36.20;21.90;;;;;;;1.69;80.85;101374.38;113550;1193;137618;-71
2021/10/25 03:56:45;;;;;;;38.50;22.10;;;;;;;1.68;80.88;101370.58;114096;1195;138948;-71
2021/10/25 03:59:47;;;;;;;34.80;21.70;;;;;;;1.67;80.81;101373.48;113578;1193;108883;-71
2021/10/25 04:27:53;;;;;;;33.20;20.60;;;;;;;1.66;79.93;101331.95;113309;1193;137838;-71
2021/10/25 04:30:41;;;;;;;35.90;21.30;;;;;;;1.67;80.11;101325.98;113282;1193;108347;-71
2021/10/25 04:33:28;;;;;;;33.80;20.80;;;;;;;1.68;79.98;101319.84;113196;1193;138837;-71
2021/10/25 04:36:39;;;;;;;37.70;22.20;;;;;;;1.68;79.81;101320.17;113940;1193;97522;-71
2021/10/25 04:39:37;;;;;;;34.50;20.90;;;;;;;1.65;79.72;101314.64;114493;1193;138088;-71
2021/10/25 04:42:28;;;;;;;36.10;21.20;;;;;;;1.65;79.67;101309.14;114685;1193;109234;-72
2021/10/25 04:45:16;;;;;;;34.70;21.60;;;;;;;1.65;79.63;101308.28;114527;1193;138823;-72
2021/10/25 04:48:04;;;;;;;37.20;21.00;;;;;;;1.64;79.56;101304.66;114673;1195;95645;-72
2021/10/25 04:51:28;;;;;;;33.00;21.80;;;;;;;1.61;79.50;101306.13;112938;1195;138074;-72
2021/10/25 04:54:19;;;;;;;44.20;22.90;;;;;;;1.59;79.49;101303.85;113401;1193;112023;-71
2021/10/25 04:57:11;;;;;;;34.40;20.90;;;;;;;1.56;79.55;101299.16;113186;1193;138014;-71
2021/10/25 04:59:58;;;;;;;32.50;21.20;;;;;;;1.53;79.54;101296.20;113300;1193;108910;-71
2021/10/25 05:02:46;;;;;;;34.00;20.50;;;;;;;1.52;79.38;101294.46;113136;1193;137747;-71
2021/10/25 05:05:33;;;;;;;31.90;19.60;;;;;;;1.50;79.42;101298.35;113190;1195;97629;-71
2021/10/25 05:08:21;;;;;;;33.50;20.60;;;;;;;1.48;79.46;101295.40;114581;1193;138349;-72
2021/10/25 05:11:07;;;;;;;37.80;22.10;;;;;;;1.49;79.39;101294.91;114371;1193;108627;-72
2021/10/25 05:13:54;;;;;;;37.40;21.10;;;;;;;1.50;79.40;101291.33;113269;1193;108156;-71
2021/10/25 05:16:43;;;;;;;;;;;;;;;1.51;79.54;101289.63;114571;1193;137740;-72
2021/10/25 05:19:32;;;;;;;31.90;20.10;;;;;;;1.51;79.45;101289.81;113495;1193;98171;-71
2021/10/25 05:22:27;;;;;;;37.10;21.40;;;;;;;1.50;79.25;101289.79;113174;1193;137668;-71
2021/10/25 05:25:14;;;;;;;35.60;19.50;;;;;;;1.50;79.29;101286.87;113257;1193;108003;-70
2021/10/25 05:28:01;;;;;;;35.00;20.90;;;;;;;1.51;79.26;101286.90;114476;1193;140055;-70
2021/10/25 05:30:47;;;;;;;38.20;22.00;;;;;;;1.52;79.30;101283.14;114762;1193;95714;-71
2021/10/25 05:33:48;;;;;;;35.30;20.90;;;;;;;1.56;79.39;101288.88;114344;1193;137790;-70
2021/10/25 05:36:35;;;;;;;;;;;;;;;1.63;79.12;101292.80;113396;1193;112293;-71
2021/10/25 05:39:22;;;;;;;36.90;20.10;;;;;;;1.71;78.97;101287.99;114644;1193;124657;-72
2021/10/25 05:42:10;;;;;;;;;;;;;;;1.82;78.81;101284.95;113813;1193;107505;-71
2021/10/25 05:44:57;;;;;;;33.90;19.40;;;;;;;1.92;78.45;101285.83;113241;1193;124188;-70
2021/10/25 05:47:46;;;;;;;33.00;20.70;;;;;;;2.03;78.14;101279.55;113398;1193;97664;-71
2021/10/25 05:50:34;;;;;;;39.60;20.80;;;;;;;2.16;77.89;101278.92;113334;1193;138180;-71
2021/10/25 05:53:21;;;;;;;;;;;;;;;2.30;77.40;101277.80;113380;1193;108979;-71
2021/10/25 05:56:08;;;;;;;34.40;19.40;;;;;;;2.44;76.95;101277.89;113485;1193;108561;-72
2021/10/25 05:58:55;;;;;;;30.50;19.00;;;;;;;2.65;76.36;101273.77;113269;1193;137555;-69
2021/10/25 06:01:46;;;;;;;39.90;21.40;;;;;;;2.90;75.88;101269.89;113269;1193;97837;-71
2021/10/25 06:04:43;;;;;;;30.10;19.20;;;;;;;3.22;75.04;101269.50;113301;1193;137968;-70
2021/10/25 06:07:40;;;;;;;28.10;19.30;;;;;;;3.59;73.84;101264.84;113362;1193;108519;-70
2021/10/25 06:10:28;;;;;;;33.00;20.10;;;;;;;3.97;72.99;101273.36;113071;1193;136623;-71
2021/10/25 06:16:41;;;;;;;35.90;20.70;;;;;;;4.84;70.28;101264.20;113168;1196;138486;-71
2021/10/25 06:19:29;;;;;;;30.20;19.90;;;;;;;5.26;68.42;101264.30;113245;1193;112207;-71
2021/10/25 06:22:19;;;;;;;28.70;19.00;;;;;;;5.60;67.54;101262.23;113196;1193;137589;-70
2021/10/25 06:25:10;;;;;;;29.20;18.80;;;;;;;5.85;66.88;101263.38;113256;1193;108093;-71
2021/10/25 06:27:58;;;;;;;32.20;20.40;;;;;;;6.15;66.19;101262.96;113738;1193;138051;-71
2021/10/25 06:30:53;;;;;;;30.10;19.10;;;;;;;6.60;65.61;101262.33;113412;1193;97526;-71
2021/10/25 06:33:46;;;;;;;28.80;18.40;;;;;;;6.98;64.77;101263.53;113823;1193;137402;-70
2021/10/25 06:36:59;;;;;;;29.40;18.60;;;;;;;7.23;64.13;101259.86;113125;1195;108429;-72
2021/10/25 06:40:05;;;;;;;27.70;18.50;;;;;;;7.29;64.30;101260.17;113203;1193;138006;-72
2021/10/25 06:42:52;;;;;;;27.30;18.10;;;;;;;7.20;64.13;101259.69;113314;1193;97492;-73
2021/10/25 06:45:42;;;;;;;30.60;19.00;;;;;;;6.98;63.90;101256.27;113420;1195;137521;-73
2021/10/25 06:48:31;;;;;;;25.80;19.10;;;;;;;6.86;63.55;101251.80;113388;1193;112248;-73
2021/10/25 06:51:18;;;;;;;27.40;18.20;;;;;;;6.89;63.49;101249.88;114586;1193;138359;-67
2021/10/25 06:54:06;;;;;;;24.50;16.90;;;;;;;6.96;62.89;101249.00;114759;1193;107553;-73
2021/10/25 06:56:53;;;;;;;28.10;19.20;;;;;;;7.12;62.42;101247.95;113699;1195;138329;-73
2021/10/25 06:59:40;;;;;;;28.90;20.00;;;;;;;7.39;61.55;101242.16;113411;1194;97496;-72
2021/10/25 07:02:31;;;;;;;26.30;18.20;;;;;;;7.61;61.00;101239.48;113286;1195;112545;-72
2021/10/25 07:05:24;;;;;;;25.20;18.40;;;;;;;7.88;60.85;101231.39;113348;1193;109145;-73
2021/10/25 07:08:14;;;;;;;24.30;17.70;;;;;;;8.26;60.75;101237.58;113364;1193;108727;-73
2021/10/25 07:11:03;;;;;;;25.30;17.20;;;;;;;8.62;59.45;101228.48;113310;1193;138151;-72
2021/10/25 07:13:51;;;;;;;23.00;16.40;;;;;;;8.93;58.43;101225.60;113381;1195;98160;-73
2021/10/25 07:16:53;;;;;;;21.90;16.50;;;;;;;9.27;57.89;101215.70;113353;1193;137583;-72
2021/10/25 08:09:39;;;;;;;22.40;15.50;;;;;;;13.36;47.93;101202.60;113354;1193;108311;-70
2021/10/25 08:12:30;;;;;;;20.90;14.50;;;;;;;13.49;47.91;101200.66;113229;1193;137802;-70
2021/10/25 08:15:25;;;;;;;22.90;15.00;;;;;;;13.56;46.96;101205.52;113369;1193;97475;-69
2021/10/25 08:21:20;;;;;;;21.10;14.40;;;;;;;14.04;46.75;101189.90;113500;1193;107831;-72
2021/10/25 08:24:07;;;;;;;17.30;12.50;;;;;;;14.32;45.33;101187.43;113509;1193;138663;-71
2021/10/25 08:27:26;;;;;;;20.10;14.10;;;;;;;14.66;45.62;101181.96;113433;1193;97594;-71
2021/10/25 08:30:17;;;;;;;20.70;13.70;;;;;;;14.96;44.39;101177.74;114103;1195;138773;-71
2021/10/25 08:36:11;;;;;;;16.10;12.40;;;;;;;15.15;44.08;101176.55;113320;1193;138012;-72
2021/10/25 08:42:34;;;;;;;19.40;14.10;;;;;;;15.45;42.57;101181.21;113278;1193;137846;-72
2021/10/25 08:45:30;;;;;;;19.80;14.00;;;;;;;15.37;41.53;101180.79;113429;1193;97527;-71
2021/10/25 08:48:18;;;;;;;17.30;13.30;;;;;;;15.28;41.90;101181.17;114603;1194;138059;-71
2021/10/25 08:51:05;;;;;;;18.20;12.90;;;;;;;15.25;42.27;101177.92;114538;1193;109225;-71
2021/10/25 08:53:52;;;;;;;20.30;13.20;;;;;;;15.36;41.86;101174.54;113299;1193;138493;-70
2021/10/25 08:56:40;;;;;;;18.30;13.40;;;;;;;15.31;41.63;101177.02;114715;1193;95868;-72
2021/10/25 08:59:32;;;;;;;18.20;12.70;;;;;;;15.14;42.12;101171.16;114568;1193;138371;-70
2021/10/25 09:02:20;;;;;;;19.20;12.80;;;;;;;15.27;42.62;101168.06;114703;1193;112319;-71
2021/10/25 09:05:20;;;;;;;19.40;12.30;;;;;;;15.40;42.02;101165.09;113332;1193;138963;-71
2021/10/25 09:08:10;;;;;;;18.70;12.90;;;;;;;15.43;41.95;101163.92;113406;1193;107982;-72
2021/10/25 09:11:02;;;;;;;20.20;11.70;;;;;;;15.34;40.71;101174.27;113281;1193;137961;-72
2021/10/25 09:13:49;;;;;;;20.20;12.90;;;;;;;15.08;41.70;101156.46;113440;1193;97628;-72
2021/10/25 09:16:44;;;;;;;19.80;13.20;;;;;;;15.00;41.22;101159.05;113217;1193;138318;-72
2021/10/25 09:19:33;;;;;;;20.30;13.80;;;;;;;14.91;41.76;101156.93;113814;1193;108549;-73
2021/10/25 09:22:21;;;;;;;20.00;13.50;;;;;;;14.81;41.44;101157.63;113267;1193;138113;-73
2021/10/25 09:25:08;;;;;;;20.00;13.70;;;;;;;14.76;42.43;101148.02;114765;1193;96007;-73
2021/10/25 09:28:14;;;;;;;;;;;;;;;14.83;42.71;101141.79;113512;1193;98648;-69
2021/10/25 09:31:09;;;;;;;21.60;14.20;;;;;;;14.90;42.30;101140.16;113448;1193;111428;-70
2021/10/25 09:34:12;;;;;;;20.80;13.10;;;;;;;14.78;42.03;101145.81;113287;1193;108948;-72
2021/10/25 09:37:22;;;;;;;21.50;12.40;;;;;;;14.65;42.46;101135.98;113246;1193;137763;-72
2021/10/25 09:49:52;;;;;;;22.90;13.50;;;;;;;14.70;43.05;101121.94;113207;1195;138059;-70
2021/10/25 09:52:43;;;;;;;16.70;12.60;;;;;;;14.71;42.96;101121.20;114666;1193;108771;-71
2021/10/25 09:55:42;;;;;;;18.40;12.70;;;;;;;14.76;43.20;101110.90;113303;1193;139173;-71
2021/10/25 09:58:42;;;;;;;18.20;12.20;;;;;;;14.75;42.45;101106.55;114773;1193;96004;-71
2021/10/25 10:01:30;;;;;;;17.60;12.30;;;;;;;14.85;42.85;101106.38;114558;1193;137925;-71
2021/10/25 10:04:17;;;;;;;19.20;12.40;;;;;;;15.00;43.12;101094.42;114216;1193;108952;-71
2021/10/25 10:07:25;;;;;;;21.40;11.60;;;;;;;15.19;42.54;101097.39;113291;1193;137923;-71
2021/10/25 10:10:21;;;;;;;20.00;12.30;;;;;;;14.99;41.78;101100.94;113354;1193;98269;-71
2021/10/25 10:13:14;;;;;;;16.70;11.00;;;;;;;14.80;42.03;101092.35;113299;1180;138374;-72
2021/10/25 10:16:14;;;;;;;18.30;12.50;;;;;;;14.61;41.78;101090.06;114748;1193;112032;-71
2021/10/25 10:19:06;;;;;;;19.00;12.00;;;;;;;14.60;42.81;101081.19;113620;1193;138923;-72
2021/10/25 10:22:09;;;;;;;17.90;12.40;;;;;;;14.53;42.75;101083.34;113418;1193;107164;-72
2021/10/25 10:25:12;;;;;;;19.50;12.00;;;;;;;14.54;42.78;101084.89;113104;1195;137943;-71
2021/10/25 10:28:07;;;;;;;20.10;11.50;;;;;;;14.43;42.34;101083.33;113297;1193;97649;-72
2021/10/25 10:30:58;;;;;;;16.60;11.30;;;;;;;14.32;43.14;101078.27;114613;1193;138548;-70
2021/10/25 10:33:51;;;;;;;16.50;11.00;;;;;;;14.28;43.38;101069.30;114734;1193;108784;-71
2021/10/25 10:36:51;;;;;;;19.80;11.50;;;;;;;14.17;43.29;101063.55;114591;1195;138020;-71
2021/10/25 10:39:39;;;;;;;20.10;10.60;;;;;;;14.04;42.67;101064.15;114454;1194;95920;-70
2021/10/25 10:43:04;;;;;;;17.30;11.30;;;;;;;13.66;43.61;101060.70;113252;1193;138446;-73
2021/10/25 10:46:07;;;;;;;15.60;10.50;;;;;;;13.62;43.81;101060.65;114443;1193;112460;-72
2021/10/25 10:48:57;;;;;;;17.60;11.10;;;;;;;13.56;44.04;101054.21;113232;1193;137897;-71
2021/10/25 10:51:44;;;;;;;17.80;11.50;;;;;;;13.52;44.40;101043.49;114450;1193;105554;-72
2021/10/25 10:54:58;;;;;;;;;;;;;;;13.54;44.68;101033.84;113188;1193;138124;-77
2021/10/25 11:00:46;;;;;;;17.70;11.10;;;;;;;13.44;44.61;101025.95;113254;1193;138311;-73
2021/10/25 11:03:34;;;;;;;16.40;11.30;;;;;;;13.37;44.14;101021.46;113341;1193;108724;-73
2021/10/25 11:06:29;;;;;;;16.80;11.10;;;;;;;13.27;44.47;101020.69;114605;1193;138218;-72
2021/10/25 11:09:15;;;;;;;17.10;11.30;;;;;;;13.24;44.86;101013.45;113400;1193;97537;-71
2021/10/25 11:12:09;;;;;;;18.10;11.30;;;;;;;13.24;44.88;101015.88;113087;1184;138881;-73
2021/10/25 11:15:02;;;;;;;18.60;10.30;;;;;;;13.16;44.30;101024.00;113429;1186;112318;-72
2021/10/25 11:17:59;;;;;;;17.00;10.70;;;;;;;13.05;44.26;101015.94;113362;1193;138509;-73
2021/10/25 11:20:46;;;;;;;20.50;11.40;;;;;;;13.05;45.17;101009.65;113727;1193;108440;-73
2021/10/25 11:23:48;;;;;;;17.40;11.70;;;;;;;13.05;45.34;101005.47;113239;1193;138485;-76
2021/10/25 11:26:46;;;;;;;22.50;10.90;;;;;;;13.17;45.90;100997.77;114572;1193;97152;-76
2021/10/25 11:29:36;;;;;;;16.60;10.00;;;;;;;13.23;44.94;101001.95;113191;1193;138302;-70
2021/10/25 11:32:28;;;;;;;17.10;10.40;;;;;;;13.17;44.71;101001.09;113195;1193;108878;-73
2021/10/25 11:35:15;;;;;;;16.40;10.30;;;;;;;13.07;44.79;101000.68;114628;1193;109011;-74
2021/10/25 11:38:02;;;;;;;16.10;9.60;;;;;;;12.99;45.49;100992.52;114557;1193;138229;-74
2021/10/25 11:40:49;;;;;;;21.50;10.50;;;;;;;12.99;45.65;100992.20;114598;1193;96154;-73
2021/10/25 11:43:35;;;;;;;16.70;9.70;;;;;;;12.96;45.73;100987.94;113420;1193;137915;-73
2021/10/25 11:46:23;;;;;;;18.00;10.70;;;;;;;12.94;45.70;100987.30;113402;1193;108570;-73
2021/10/25 11:49:10;;;;;;;17.10;10.80;;;;;;;12.93;46.25;100973.02;113227;1193;138289;-72
2021/10/25 11:51:58;;;;;;;15.80;9.80;;;;;;;13.03;46.29;100968.69;113357;1193;97638;-73
2021/10/25 11:54:50;;;;;;;19.00;10.60;;;;;;;13.08;45.91;100968.34;113315;1193;137742;-72
2021/10/25 11:57:49;;;;;;;17.50;11.10;;;;;;;13.08;45.78;100966.05;113455;1193;112282;-71
2021/10/25 12:00:44;;;;;;;18.50;11.50;;;;;;;13.06;46.21;100959.86;113298;1193;137875;-71
2021/10/25 12:03:40;;;;;;;21.90;11.40;;;;;;;13.09;46.17;100956.64;113038;1193;109666;-71
2021/10/25 12:06:28;;;;;;;;;;;;;;;13.07;46.38;100953.73;113644;1193;137999;-72
2021/10/25 12:09:14;;;;;;;21.40;12.20;;;;;;;13.04;46.29;100952.08;114624;1193;96122;-72
2021/10/25 12:12:06;;;;;;;17.00;11.20;;;;;;;12.97;45.87;100953.33;113344;1193;138064;-71
2021/10/25 12:14:59;;;;;;;19.00;11.20;;;;;;;12.86;46.01;100937.77;114593;1193;108732;-72
2021/10/25 12:17:47;;;;;;;19.40;11.80;;;;;;;12.79;46.17;100934.16;113399;1189;138094;-71
2021/10/25 12:20:37;;;;;;;19.00;11.60;;;;;;;12.73;46.11;100937.84;113181;1193;97560;-72
2021/10/25 12:23:47;;;;;;;23.30;12.60;;;;;;;12.69;46.61;100935.33;113085;1193;97530;-71
2021/10/25 12:26:33;;;;;;;17.80;11.50;;;;;;;12.71;46.76;100942.77;113872;1193;111079;-73
2021/10/25 12:29:25;;;;;;;18.50;11.70;;;;;;;12.78;47.21;100932.96;113179;1193;107662;-74
2021/10/25 12:32:13;;;;;;;22.60;12.40;;;;;;;12.84;46.85;100936.47;114260;1193;137893;-70
2021/10/25 12:35:01;;;;;;;20.30;11.50;;;;;;;12.81;46.78;100930.10;114651;1193;96515;-72
2021/10/25 12:38:01;;;;;;;17.80;11.00;;;;;;;12.82;47.16;100930.22;113128;1193;138055;-72
2021/10/25 12:40:54;;;;;;;18.70;11.10;;;;;;;12.89;47.11;100930.53;113236;1193;112089;-73
2021/10/25 12:43:48;;;;;;;20.40;10.70;;;;;;;12.97;47.12;100933.78;114501;1193;138067;-73
2021/10/25 12:46:35;;;;;;;17.00;10.20;;;;;;;13.03;46.73;100925.41;114672;1193;108321;-73
2021/10/25 12:49:23;;;;;;;20.80;11.90;;;;;;;12.97;46.39;100923.48;114489;1193;137885;-71
2021/10/25 12:52:11;;;;;;;15.60;10.20;;;;;;;12.88;46.07;100925.33;113355;1193;98639;-72
2021/10/25 12:55:03;;;;;;;18.50;10.60;;;;;;;12.80;46.53;100920.70;113136;1193;137873;-72
2021/10/25 12:57:54;;;;;;;17.30;10.40;;;;;;;12.76;46.57;100912.11;113280;1193;108780;-72
2021/10/25 13:00:41;;;;;;;16.90;9.60;;;;;;;12.73;46.55;100911.45;113167;1193;139796;-71
2021/10/25 13:03:29;;;;;;;16.50;9.90;;;;;;;12.68;46.99;100902.02;113028;1193;97593;-72
2021/10/25 13:06:17;;;;;;;17.40;10.20;;;;;;;12.67;47.15;100902.73;113371;1193;137701;-72
2021/10/25 13:09:08;;;;;;;18.90;10.00;;;;;;;12.70;47.04;100903.69;113361;1193;112185;-73
2021/10/25 13:11:55;;;;;;;18.00;10.60;;;;;;;12.65;47.16;100903.01;113391;1193;108548;-71
2021/10/25 13:14:42;;;;;;;19.60;9.60;;;;;;;12.61;47.37;100901.20;113109;1193;137767;-72
2021/10/25 13:17:34;;;;;;;13.50;9.00;;;;;;;12.58;47.02;100911.78;113151;1193;97526;-78
2021/10/25 13:20:25;;;;;;;15.50;9.10;;;;;;;12.54;47.26;100898.10;113105;1193;137716;-71
2021/10/25 13:23:14;;;;;;;13.10;8.20;;;;;;;12.51;46.75;100902.36;113059;1193;112347;-74
2021/10/25 13:26:02;;;;;;;15.60;8.50;;;;;;;12.45;46.96;100892.61;114439;1193;138518;-72
2021/10/25 13:28:49;;;;;;;15.10;8.90;;;;;;;12.40;47.21;100898.02;114408;1193;108704;-74
2021/10/25 13:31:36;;;;;;;13.90;9.20;;;;;;;12.37;47.37;100891.27;112954;1193;137760;-75
2021/10/25 13:34:23;;;;;;;13.50;8.50;;;;;;;12.33;47.43;100897.50;113052;1193;97495;-76
2021/10/25 13:37:10;;;;;;;13.00;7.80;;;;;;;12.31;47.69;100890.92;112963;1193;138695;-73
2021/10/25 13:39:57;;;;;;;17.90;9.20;;;;;;;12.29;47.14;100887.69;113270;1193;108090;-74
2021/10/25 13:42:44;;;;;;;16.50;8.90;;;;;;;12.18;46.73;100897.04;113242;1193;137927;-75
2021/10/25 13:45:32;;;;;;;15.30;8.30;;;;;;;12.11;46.94;100899.01;113357;1193;97640;-73
2021/10/25 13:48:19;;;;;;;16.90;9.00;;;;;;;12.05;47.19;100899.52;113363;1193;137887;-71
2021/10/25 13:51:05;;;;;;;14.20;8.80;;;;;;;11.99;47.51;100891.67;113159;1193;112155;-72
2021/10/25 13:53:53;;;;;;;17.00;8.90;;;;;;;11.94;47.32;100888.84;112979;1193;108240;-72
2021/10/25 13:56:40;;;;;;;14.60;8.70;;;;;;;11.92;47.61;100886.80;113035;1193;138659;-71
2021/10/25 13:59:26;;;;;;;15.10;8.60;;;;;;;11.87;47.46;100884.52;113322;1193;97534;-71
2021/10/25 14:02:14;;;;;;;16.90;9.60;;;;;;;11.84;47.48;100887.20;113099;1193;138249;-73
2021/10/25 14:05:04;;;;;;;17.10;9.60;;;;;;;11.76;47.23;100885.48;113660;1193;111229;-71
2021/10/25 14:07:50;;;;;;;13.60;8.20;;;;;;;11.66;47.27;100883.13;114676;1193;137706;-72
2021/10/25 14:10:49;;;;;;;16.70;9.50;;;;;;;11.55;47.42;100884.45;113521;1193;109182;-71
2021/10/25 14:16:40;;;;;;;18.20;9.60;;;;;;;11.32;48.17;100874.09;113233;1193;97521;-73
2021/10/25 14:19:28;;;;;;;15.60;9.50;;;;;;;11.23;48.45;100867.52;113070;1193;138150;-72
2021/10/25 14:22:17;;;;;;;18.30;9.70;;;;;;;11.13;48.86;100866.52;114723;1193;108831;-72
2021/10/25 14:25:05;;;;;;;20.60;10.80;;;;;;;11.05;49.14;100860.48;114361;1193;138587;-72
2021/10/25 14:27:51;;;;;;;;;;;;;;;10.97;49.41;100854.95;114584;1193;96228;-72
2021/10/25 14:30:38;;;;;;;18.70;10.40;;;;;;;10.90;49.81;100849.70;114226;1193;124466;-71
2021/10/25 14:33:26;;;;;;;16.40;9.80;;;;;;;10.84;49.85;100860.63;113199;1193;113575;-71
2021/10/25 14:36:13;;;;;;;22.40;9.90;;;;;;;10.78;50.09;100852.23;113226;1195;107118;-71
2021/10/25 14:44:51;;;;;;;19.30;10.90;;;;;;;10.54;50.99;100848.96;113491;1193;139616;-72